sensor_id;sensor_type;location;lat;lon;timestamp;pressure;altitude;pressure_sealevel;temperature;humidity
71917;BME280;59793;46.506;6.674;2023-08-17T00:01:23;97151.66;;;26.31;42.26
71917;BME280;59793;46.506;6.674;2023-08-17T00:03:48;97161.28;;;26.32;42.68
71917;BME280;59793;46.506;6.674;2023-08-17T00:06:14;97159.16;;;26.27;43.59
71917;BME280;59793;46.506;6.674;2023-08-17T00:08:39;97152.66;;;26.15;43.95
71917;BME280;59793;46.506;6.674;2023-08-17T00:11:04;97164.19;;;26.15;43.55
71917;BME280;59793;46.506;6.674;2023-08-17T00:13:29;97166.84;;;26.06;43.91
71917;BME280;59793;46.506;6.674;2023-08-17T00:15:54;97162.44;;;25.99;43.76
71917;BME280;59793;46.506;6.674;2023-08-17T00:18:20;97172.81;;;26.01;44.17
71917;BME280;59793;46.506;6.674;2023-08-17T00:20:45;97169.91;;;25.95;43.95
71917;BME280;59793;46.506;6.674;2023-08-17T00:23:10;97172.16;;;25.97;43.91
71917;BME280;59793;46.506;6.674;2023-08-17T00:25:36;97163.69;;;25.86;44.22
71917;BME280;59793;46.506;6.674;2023-08-17T00:28:01;97170.28;;;25.85;44.23
71917;BME280;59793;46.506;6.674;2023-08-17T00:30:26;97164.56;;;25.83;44.15
71917;BME280;59793;46.506;6.674;2023-08-17T00:32:52;97156.06;;;25.84;44.00
71917;BME280;59793;46.506;6.674;2023-08-17T00:35:17;97161.13;;;25.82;43.80
71917;BME280;59793;46.506;6.674;2023-08-17T00:37:42;97155.19;;;25.87;43.88
71917;BME280;59793;46.506;6.674;2023-08-17T00:40:08;97159.94;;;25.83;43.96
71917;BME280;59793;46.506;6.674;2023-08-17T00:42:33;97168.56;;;25.78;44.08
71917;BME280;59793;46.506;6.674;2023-08-17T00:44:58;97164.28;;;25.81;44.10
71917;BME280;59793;46.506;6.674;2023-08-17T00:47:23;97154.22;;;25.81;44.11
71917;BME280;59793;46.506;6.674;2023-08-17T00:49:49;97155.31;;;25.84;44.15
71917;BME280;59793;46.506;6.674;2023-08-17T00:52:14;97164.56;;;25.83;43.88
71917;BME280;59793;46.506;6.674;2023-08-17T00:54:40;97161.56;;;25.81;43.97
71917;BME280;59793;46.506;6.674;2023-08-17T00:57:05;97158.00;;;25.84;43.78
71917;BME280;59793;46.506;6.674;2023-08-17T00:59:31;97157.88;;;25.87;43.91
71917;BME280;59793;46.506;6.674;2023-08-17T01:01:57;97158.03;;;25.93;43.77
71917;BME280;59793;46.506;6.674;2023-08-17T01:04:22;97160.19;;;25.98;43.98
71917;BME280;59793;46.506;6.674;2023-08-17T01:06:47;97155.06;;;25.91;44.19
71917;BME280;59793;46.506;6.674;2023-08-17T01:09:13;97160.44;;;25.91;44.09
71917;BME280;59793;46.506;6.674;2023-08-17T01:11:44;97158.66;;;25.97;44.13
71917;BME280;59793;46.506;6.674;2023-08-17T01:14:11;97167.09;;;25.99;44.25
71917;BME280;59793;46.506;6.674;2023-08-17T01:16:42;97160.06;;;26.02;43.71
71917;BME280;59793;46.506;6.674;2023-08-17T01:19:08;97156.28;;;25.99;43.98
71917;BME280;59793;46.506;6.674;2023-08-17T01:21:45;97147.00;;;26.00;44.54
71917;BME280;59793;46.506;6.674;2023-08-17T01:24:12;97161.06;;;25.95;44.12
71917;BME280;59793;46.506;6.674;2023-08-17T01:26:37;97160.91;;;25.77;44.78
71917;BME280;59793;46.506;6.674;2023-08-17T01:29:02;97164.75;;;25.66;44.72
71917;BME280;59793;46.506;6.674;2023-08-17T01:31:31;97162.53;;;25.52;44.47
71917;BME280;59793;46.506;6.674;2023-08-17T01:34:03;97158.63;;;25.53;44.33
71917;BME280;59793;46.506;6.674;2023-08-17T01:36:33;97150.88;;;25.55;44.30
71917;BME280;59793;46.506;6.674;2023-08-17T01:39:01;97155.69;;;25.60;44.27
71917;BME280;59793;46.506;6.674;2023-08-17T01:41:26;97163.56;;;25.55;44.52
71917;BME280;59793;46.506;6.674;2023-08-17T01:43:52;97164.03;;;25.53;44.81
71917;BME280;59793;46.506;6.674;2023-08-17T01:46:18;97166.63;;;25.44;44.81
71917;BME280;59793;46.506;6.674;2023-08-17T01:48:44;97168.16;;;25.45;44.92
71917;BME280;59793;46.506;6.674;2023-08-17T01:51:10;97163.88;;;25.35;44.64
71917;BME280;59793;46.506;6.674;2023-08-17T01:53:35;97155.91;;;25.31;44.43
71917;BME280;59793;46.506;6.674;2023-08-17T01:56:01;97144.38;;;25.31;44.83
71917;BME280;59793;46.506;6.674;2023-08-17T01:58:26;97157.28;;;25.36;44.47
71917;BME280;59793;46.506;6.674;2023-08-17T02:00:51;97147.47;;;25.29;45.41
71917;BME280;59793;46.506;6.674;2023-08-17T02:03:16;97149.31;;;25.32;45.26
71917;BME280;59793;46.506;6.674;2023-08-17T02:05:45;97146.19;;;25.34;44.74
71917;BME280;59793;46.506;6.674;2023-08-17T02:08:10;97142.28;;;25.35;44.42
71917;BME280;59793;46.506;6.674;2023-08-17T02:10:36;97134.50;;;25.37;44.80
71917;BME280;59793;46.506;6.674;2023-08-17T02:13:01;97131.81;;;25.37;44.23
71917;BME280;59793;46.506;6.674;2023-08-17T02:15:26;97130.94;;;25.40;44.54
71917;BME280;59793;46.506;6.674;2023-08-17T02:17:51;97122.13;;;25.26;44.67
71917;BME280;59793;46.506;6.674;2023-08-17T02:20:17;97119.75;;;25.28;44.85
71917;BME280;59793;46.506;6.674;2023-08-17T02:22:42;97115.63;;;25.37;44.82
71917;BME280;59793;46.506;6.674;2023-08-17T02:25:07;97113.72;;;25.37;44.55
71917;BME280;59793;46.506;6.674;2023-08-17T02:27:33;97106.91;;;25.33;44.83
71917;BME280;59793;46.506;6.674;2023-08-17T02:29:58;97108.97;;;25.28;44.70
71917;BME280;59793;46.506;6.674;2023-08-17T02:32:23;97106.28;;;25.28;44.93
71917;BME280;59793;46.506;6.674;2023-08-17T02:34:48;97112.94;;;25.37;44.54
71917;BME280;59793;46.506;6.674;2023-08-17T02:37:14;97109.06;;;25.38;44.64
71917;BME280;59793;46.506;6.674;2023-08-17T02:39:39;97108.09;;;25.32;44.69
71917;BME280;59793;46.506;6.674;2023-08-17T02:42:04;97108.44;;;25.34;44.68
71917;BME280;59793;46.506;6.674;2023-08-17T02:44:29;97114.25;;;25.32;44.77
71917;BME280;59793;46.506;6.674;2023-08-17T02:46:54;97112.41;;;25.29;45.17
71917;BME280;59793;46.506;6.674;2023-08-17T02:49:20;97109.00;;;25.16;45.58
71917;BME280;59793;46.506;6.674;2023-08-17T02:51:45;97118.50;;;25.20;45.82
71917;BME280;59793;46.506;6.674;2023-08-17T02:54:10;97113.66;;;25.15;45.96
71917;BME280;59793;46.506;6.674;2023-08-17T02:56:35;97109.13;;;25.12;46.02
71917;BME280;59793;46.506;6.674;2023-08-17T02:59:01;97115.38;;;25.09;46.13
71917;BME280;59793;46.506;6.674;2023-08-17T03:01:26;97121.63;;;25.06;45.92
71917;BME280;59793;46.506;6.674;2023-08-17T03:03:51;97116.47;;;24.99;46.14
71917;BME280;59793;46.506;6.674;2023-08-17T03:06:16;97119.38;;;25.04;46.27
71917;BME280;59793;46.506;6.674;2023-08-17T03:08:41;97129.31;;;24.95;46.27
71917;BME280;59793;46.506;6.674;2023-08-17T03:11:07;97122.09;;;24.92;46.77
71917;BME280;59793;46.506;6.674;2023-08-17T03:13:34;97122.31;;;24.85;47.21
71917;BME280;59793;46.506;6.674;2023-08-17T03:15:59;97128.47;;;24.85;47.03
71917;BME280;59793;46.506;6.674;2023-08-17T03:18:25;97121.66;;;24.80;47.28
71917;BME280;59793;46.506;6.674;2023-08-17T03:20:50;97121.66;;;24.80;47.51
71917;BME280;59793;46.506;6.674;2023-08-17T03:23:15;97114.88;;;24.89;47.58
71917;BME280;59793;46.506;6.674;2023-08-17T03:25:40;97117.50;;;24.67;48.34
71917;BME280;59793;46.506;6.674;2023-08-17T03:28:06;97118.03;;;24.74;48.31
71917;BME280;59793;46.506;6.674;2023-08-17T03:30:31;97115.00;;;24.72;48.74
71917;BME280;59793;46.506;6.674;2023-08-17T03:32:56;97114.47;;;24.77;48.72
71917;BME280;59793;46.506;6.674;2023-08-17T03:35:21;97117.34;;;24.83;48.39
71917;BME280;59793;46.506;6.674;2023-08-17T03:37:47;97116.06;;;24.88;48.17
71917;BME280;59793;46.506;6.674;2023-08-17T03:40:12;97106.38;;;24.77;48.38
71917;BME280;59793;46.506;6.674;2023-08-17T03:42:37;97117.56;;;24.76;48.38
71917;BME280;59793;46.506;6.674;2023-08-17T03:45:03;97112.63;;;24.74;48.15
71917;BME280;59793;46.506;6.674;2023-08-17T03:47:28;97109.31;;;24.70;48.30
71917;BME280;59793;46.506;6.674;2023-08-17T03:49:53;97110.06;;;24.58;48.36
71917;BME280;59793;46.506;6.674;2023-08-17T03:52:19;97119.84;;;24.52;48.29
71917;BME280;59793;46.506;6.674;2023-08-17T03:54:44;97115.22;;;24.40;48.75
71917;BME280;59793;46.506;6.674;2023-08-17T03:57:10;97111.31;;;24.15;49.29
71917;BME280;59793;46.506;6.674;2023-08-17T03:59:35;97115.91;;;24.02;49.55
71917;BME280;59793;46.506;6.674;2023-08-17T04:02:00;97109.09;;;23.84;50.09
71917;BME280;59793;46.506;6.674;2023-08-17T04:04:25;97119.56;;;23.66;50.57
71917;BME280;59793;46.506;6.674;2023-08-17T04:06:51;97122.53;;;23.55;50.65
71917;BME280;59793;46.506;6.674;2023-08-17T04:09:16;97121.53;;;23.49;51.26
71917;BME280;59793;46.506;6.674;2023-08-17T04:11:41;97135.78;;;23.33;51.41
71917;BME280;59793;46.506;6.674;2023-08-17T04:14:06;97140.22;;;23.40;51.11
71917;BME280;59793;46.506;6.674;2023-08-17T04:16:34;97141.53;;;23.48;50.34
71917;BME280;59793;46.506;6.674;2023-08-17T04:18:59;97140.53;;;23.58;50.69
71917;BME280;59793;46.506;6.674;2023-08-17T04:21:24;97141.00;;;23.70;50.28
71917;BME280;59793;46.506;6.674;2023-08-17T04:23:50;97149.66;;;23.77;50.33
71917;BME280;59793;46.506;6.674;2023-08-17T04:26:15;97147.16;;;23.70;50.68
71917;BME280;59793;46.506;6.674;2023-08-17T04:28:40;97151.94;;;23.62;51.25
71917;BME280;59793;46.506;6.674;2023-08-17T04:31:05;97148.53;;;23.46;51.53
71917;BME280;59793;46.506;6.674;2023-08-17T04:33:31;97156.31;;;23.11;51.86
71917;BME280;59793;46.506;6.674;2023-08-17T04:35:56;97161.69;;;22.95;52.67
71917;BME280;59793;46.506;6.674;2023-08-17T04:38:21;97165.97;;;22.92;52.83
71917;BME280;59793;46.506;6.674;2023-08-17T04:40:47;97167.22;;;23.04;52.41
71917;BME280;59793;46.506;6.674;2023-08-17T04:43:12;97176.81;;;23.05;52.57
71917;BME280;59793;46.506;6.674;2023-08-17T04:45:37;97176.13;;;23.17;52.41
71917;BME280;59793;46.506;6.674;2023-08-17T04:48:02;97183.91;;;23.28;52.24
71917;BME280;59793;46.506;6.674;2023-08-17T04:50:28;97187.38;;;23.28;52.20
71917;BME280;59793;46.506;6.674;2023-08-17T04:52:53;97192.56;;;23.35;52.05
71917;BME280;59793;46.506;6.674;2023-08-17T04:55:18;97189.56;;;23.33;52.54
71917;BME280;59793;46.506;6.674;2023-08-17T04:57:43;97198.03;;;23.48;52.02
71917;BME280;59793;46.506;6.674;2023-08-17T05:00:09;97197.44;;;23.57;52.28
71917;BME280;59793;46.506;6.674;2023-08-17T05:02:35;97201.94;;;23.60;52.31
71917;BME280;59793;46.506;6.674;2023-08-17T05:05:02;97202.03;;;23.56;52.51
71917;BME280;59793;46.506;6.674;2023-08-17T05:07:27;97213.22;;;23.55;52.47
71917;BME280;59793;46.506;6.674;2023-08-17T05:09:52;97218.63;;;23.38;52.98
71917;BME280;59793;46.506;6.674;2023-08-17T05:12:18;97231.03;;;23.49;52.99
71917;BME280;59793;46.506;6.674;2023-08-17T05:14:43;97232.81;;;23.55;53.29
71917;BME280;59793;46.506;6.674;2023-08-17T05:17:08;97245.53;;;23.71;53.12
71917;BME280;59793;46.506;6.674;2023-08-17T05:19:33;97249.38;;;23.70;55.12
71917;BME280;59793;46.506;6.674;2023-08-17T05:21:59;97252.44;;;23.85;55.78
71917;BME280;59793;46.506;6.674;2023-08-17T05:24:24;97261.44;;;23.95;56.72
71917;BME280;59793;46.506;6.674;2023-08-17T05:26:49;97268.00;;;23.94;62.52
71917;BME280;59793;46.506;6.674;2023-08-17T05:29:14;97273.28;;;23.68;64.35
71917;BME280;59793;46.506;6.674;2023-08-17T05:31:39;97277.53;;;23.82;63.22
71917;BME280;59793;46.506;6.674;2023-08-17T05:34:05;97272.06;;;23.85;62.95
71917;BME280;59793;46.506;6.674;2023-08-17T05:36:30;97275.66;;;23.95;63.16
71917;BME280;59793;46.506;6.674;2023-08-17T05:38:55;97276.00;;;23.81;64.73
71917;BME280;59793;46.506;6.674;2023-08-17T05:41:20;97280.09;;;24.02;64.57
71917;BME280;59793;46.506;6.674;2023-08-17T05:43:46;97281.25;;;24.17;64.24
71917;BME280;59793;46.506;6.674;2023-08-17T05:46:11;97278.94;;;24.32;63.37
71917;BME280;59793;46.506;6.674;2023-08-17T05:48:36;97271.03;;;24.54;63.22
71917;BME280;59793;46.506;6.674;2023-08-17T05:51:01;97276.66;;;24.72;62.70
71917;BME280;59793;46.506;6.674;2023-08-17T05:53:27;97279.28;;;24.89;62.57
71917;BME280;59793;46.506;6.674;2023-08-17T05:55:52;97280.03;;;24.89;62.83
71917;BME280;59793;46.506;6.674;2023-08-17T05:58:17;97268.28;;;24.96;62.78
71917;BME280;59793;46.506;6.674;2023-08-17T06:00:42;97278.00;;;25.06;62.62
71917;BME280;59793;46.506;6.674;2023-08-17T06:03:08;97274.44;;;25.09;62.17
71917;BME280;59793;46.506;6.674;2023-08-17T06:05:33;97286.34;;;25.24;61.72
71917;BME280;59793;46.506;6.674;2023-08-17T06:07:59;97292.91;;;25.36;61.47
71917;BME280;59793;46.506;6.674;2023-08-17T06:10:24;97283.59;;;25.50;60.75
71917;BME280;59793;46.506;6.674;2023-08-17T06:12:53;97295.66;;;25.58;60.45
71917;BME280;59793;46.506;6.674;2023-08-17T06:15:18;97291.69;;;25.63;60.03
71917;BME280;59793;46.506;6.674;2023-08-17T06:17:44;97297.97;;;25.60;58.42
71917;BME280;59793;46.506;6.674;2023-08-17T06:20:12;97297.97;;;25.47;58.06
71917;BME280;59793;46.506;6.674;2023-08-17T06:22:38;97292.38;;;25.41;57.62
71917;BME280;59793;46.506;6.674;2023-08-17T06:25:06;97297.22;;;25.46;58.15
71917;BME280;59793;46.506;6.674;2023-08-17T06:27:36;97299.16;;;25.46;58.94
71917;BME280;59793;46.506;6.674;2023-08-17T06:30:02;97292.09;;;25.61;58.47
71917;BME280;59793;46.506;6.674;2023-08-17T06:32:28;97294.22;;;25.32;58.82
71917;BME280;59793;46.506;6.674;2023-08-17T06:34:53;97305.63;;;25.36;58.93
71917;BME280;59793;46.506;6.674;2023-08-17T06:37:19;97299.56;;;25.06;59.76
71917;BME280;59793;46.506;6.674;2023-08-17T06:39:44;97309.84;;;25.11;59.93
71917;BME280;59793;46.506;6.674;2023-08-17T06:42:09;97311.47;;;25.21;60.10
71917;BME280;59793;46.506;6.674;2023-08-17T06:44:35;97318.88;;;25.04;61.03
71917;BME280;59793;46.506;6.674;2023-08-17T06:47:00;97313.91;;;25.03;61.43
71917;BME280;59793;46.506;6.674;2023-08-17T06:49:26;97317.13;;;24.98;61.96
71917;BME280;59793;46.506;6.674;2023-08-17T06:51:51;97331.59;;;25.04;61.24
71917;BME280;59793;46.506;6.674;2023-08-17T06:54:16;97336.22;;;25.03;61.67
71917;BME280;59793;46.506;6.674;2023-08-17T06:56:41;97330.41;;;25.05;61.89
71917;BME280;59793;46.506;6.674;2023-08-17T06:59:07;97339.69;;;25.04;61.97
71917;BME280;59793;46.506;6.674;2023-08-17T07:01:32;97352.38;;;24.91;61.82
71917;BME280;59793;46.506;6.674;2023-08-17T07:03:57;97348.97;;;25.03;62.38
71917;BME280;59793;46.506;6.674;2023-08-17T07:06:23;97344.66;;;25.06;62.29
71917;BME280;59793;46.506;6.674;2023-08-17T07:08:49;97336.47;;;25.09;61.85
71917;BME280;59793;46.506;6.674;2023-08-17T07:11:15;97345.72;;;25.08;62.21
71917;BME280;59793;46.506;6.674;2023-08-17T07:13:40;97352.66;;;25.22;62.36
71917;BME280;59793;46.506;6.674;2023-08-17T07:16:07;97360.56;;;25.16;62.19
71917;BME280;59793;46.506;6.674;2023-08-17T07:18:33;97360.56;;;25.16;62.98
71917;BME280;59793;46.506;6.674;2023-08-17T07:20:58;97357.91;;;25.00;63.32
71917;BME280;59793;46.506;6.674;2023-08-17T07:23:23;97370.72;;;24.96;63.79
71917;BME280;59793;46.506;6.674;2023-08-17T07:25:48;97373.53;;;24.92;63.72
71917;BME280;59793;46.506;6.674;2023-08-17T07:28:14;97363.94;;;25.04;63.77
71917;BME280;59793;46.506;6.674;2023-08-17T07:30:40;97363.06;;;24.94;63.78
71917;BME280;59793;46.506;6.674;2023-08-17T07:33:05;97361.16;;;25.08;62.95
71917;BME280;59793;46.506;6.674;2023-08-17T07:35:31;97364.75;;;25.17;62.60
71917;BME280;59793;46.506;6.674;2023-08-17T07:37:56;97350.63;;;25.13;63.20
71917;BME280;59793;46.506;6.674;2023-08-17T07:40:21;97356.88;;;25.23;63.38
71917;BME280;59793;46.506;6.674;2023-08-17T07:42:46;97350.19;;;25.40;62.19
71917;BME280;59793;46.506;6.674;2023-08-17T07:45:12;97352.38;;;25.45;61.60
71917;BME280;59793;46.506;6.674;2023-08-17T07:47:37;97355.38;;;25.47;61.07
71917;BME280;59793;46.506;6.674;2023-08-17T07:50:06;97360.88;;;25.44;60.70
71917;BME280;59793;46.506;6.674;2023-08-17T07:52:31;97368.22;;;25.31;60.79
71917;BME280;59793;46.506;6.674;2023-08-17T07:54:57;97368.22;;;25.31;59.96
71917;BME280;59793;46.506;6.674;2023-08-17T07:57:22;97372.75;;;25.34;60.53
71917;BME280;59793;46.506;6.674;2023-08-17T07:59:49;97375.56;;;25.30;60.49
71917;BME280;59793;46.506;6.674;2023-08-17T08:02:16;97390.53;;;25.18;61.69
71917;BME280;59793;46.506;6.674;2023-08-17T08:04:41;97382.41;;;25.06;62.36
71917;BME280;59793;46.506;6.674;2023-08-17T08:07:06;97382.81;;;25.04;63.40
71917;BME280;59793;46.506;6.674;2023-08-17T08:09:31;97379.84;;;25.15;61.73
71917;BME280;59793;46.506;6.674;2023-08-17T08:11:56;97379.66;;;25.35;61.69
71917;BME280;59793;46.506;6.674;2023-08-17T08:14:22;97370.91;;;25.43;59.90
71917;BME280;59793;46.506;6.674;2023-08-17T08:16:47;97366.16;;;25.60;59.45
71917;BME280;59793;46.506;6.674;2023-08-17T08:19:13;97370.69;;;25.76;59.70
71917;BME280;59793;46.506;6.674;2023-08-17T08:21:38;97360.78;;;25.73;52.44
71917;BME280;59793;46.506;6.674;2023-08-17T08:24:04;97357.13;;;25.80;51.77
71917;BME280;59793;46.506;6.674;2023-08-17T08:26:29;97354.72;;;25.82;49.72
71917;BME280;59793;46.506;6.674;2023-08-17T08:28:54;97345.97;;;25.90;50.80
71917;BME280;59793;46.506;6.674;2023-08-17T08:31:20;97340.75;;;26.09;48.59
71917;BME280;59793;46.506;6.674;2023-08-17T08:33:45;97340.63;;;26.12;50.89
71917;BME280;59793;46.506;6.674;2023-08-17T08:36:10;97341.41;;;26.00;53.75
71917;BME280;59793;46.506;6.674;2023-08-17T08:38:36;97341.44;;;25.74;54.73
71917;BME280;59793;46.506;6.674;2023-08-17T08:41:01;97347.91;;;25.77;55.59
71917;BME280;59793;46.506;6.674;2023-08-17T08:43:27;97350.31;;;25.62;54.97
71917;BME280;59793;46.506;6.674;2023-08-17T08:45:52;97350.31;;;25.62;56.39
71917;BME280;59793;46.506;6.674;2023-08-17T08:48:18;97340.94;;;25.41;56.66
71917;BME280;59793;46.506;6.674;2023-08-17T08:50:43;97336.59;;;25.44;56.40
71917;BME280;59793;46.506;6.674;2023-08-17T08:53:14;97331.97;;;25.44;55.45
71917;BME280;59793;46.506;6.674;2023-08-17T08:55:41;97337.25;;;25.48;55.23
71917;BME280;59793;46.506;6.674;2023-08-17T08:58:09;97332.28;;;25.46;55.29
71917;BME280;59793;46.506;6.674;2023-08-17T09:00:34;97337.47;;;25.41;56.42
71917;BME280;59793;46.506;6.674;2023-08-17T09:03:01;97333.56;;;25.29;56.94
71917;BME280;59793;46.506;6.674;2023-08-17T09:05:26;97332.72;;;25.32;57.28
71917;BME280;59793;46.506;6.674;2023-08-17T09:07:52;97326.69;;;25.41;56.56
71917;BME280;59793;46.506;6.674;2023-08-17T09:10:17;97325.28;;;25.49;56.11
71917;BME280;59793;46.506;6.674;2023-08-17T09:12:46;97322.53;;;25.62;55.80
71917;BME280;59793;46.506;6.674;2023-08-17T09:15:12;97326.31;;;25.64;55.20
71917;BME280;59793;46.506;6.674;2023-08-17T09:17:37;97320.28;;;25.73;55.04
71917;BME280;59793;46.506;6.674;2023-08-17T09:20:03;97328.72;;;25.62;54.78
71917;BME280;59793;46.506;6.674;2023-08-17T09:22:42;97327.06;;;25.65;53.40
71917;BME280;59793;46.506;6.674;2023-08-17T09:25:08;97325.91;;;25.53;55.54
71917;BME280;59793;46.506;6.674;2023-08-17T09:27:34;97319.53;;;25.47;55.96
71917;BME280;59793;46.506;6.674;2023-08-17T09:30:01;97320.06;;;25.55;55.52
71917;BME280;59793;46.506;6.674;2023-08-17T09:32:30;97314.16;;;25.47;56.14
71917;BME280;59793;46.506;6.674;2023-08-17T09:34:55;97304.97;;;25.57;56.06
71917;BME280;59793;46.506;6.674;2023-08-17T09:37:20;97297.72;;;25.67;55.95
71917;BME280;59793;46.506;6.674;2023-08-17T09:39:45;97309.47;;;25.73;55.70
71917;BME280;59793;46.506;6.674;2023-08-17T09:42:11;97315.13;;;25.53;56.35
71917;BME280;59793;46.506;6.674;2023-08-17T09:44:36;97315.34;;;25.46;55.25
71917;BME280;59793;46.506;6.674;2023-08-17T09:47:04;97315.00;;;25.44;56.03
71917;BME280;59793;46.506;6.674;2023-08-17T09:49:30;97308.31;;;25.61;56.08
71917;BME280;59793;46.506;6.674;2023-08-17T09:51:58;97306.25;;;25.65;55.32
71917;BME280;59793;46.506;6.674;2023-08-17T09:54:24;97302.00;;;25.90;55.04
71917;BME280;59793;46.506;6.674;2023-08-17T09:56:52;97301.84;;;26.06;54.22
71917;BME280;59793;46.506;6.674;2023-08-17T09:59:17;97307.59;;;26.30;54.22
71917;BME280;59793;46.506;6.674;2023-08-17T10:01:42;97294.75;;;26.56;53.43
71917;BME280;59793;46.506;6.674;2023-08-17T10:04:08;97281.41;;;26.62;52.89
71917;BME280;59793;46.506;6.674;2023-08-17T10:06:34;97279.25;;;26.79;52.88
71917;BME280;59793;46.506;6.674;2023-08-17T10:09:00;97263.78;;;26.79;52.64
71917;BME280;59793;46.506;6.674;2023-08-17T10:11:26;97264.13;;;26.90;52.22
71917;BME280;59793;46.506;6.674;2023-08-17T10:13:53;97258.47;;;26.98;52.72
71917;BME280;59793;46.506;6.674;2023-08-17T10:16:22;97260.03;;;27.17;52.31
71917;BME280;59793;46.506;6.674;2023-08-17T10:24:17;97258.53;;;26.76;53.17
71917;BME280;59793;46.506;6.674;2023-08-17T10:26:43;97258.25;;;26.83;52.62
71917;BME280;59793;46.506;6.674;2023-08-17T10:29:09;97252.50;;;26.72;53.60
71917;BME280;59793;46.506;6.674;2023-08-17T10:31:35;97263.78;;;26.48;53.99
71917;BME280;59793;46.506;6.674;2023-08-17T10:34:01;97256.88;;;26.47;54.71
71917;BME280;59793;46.506;6.674;2023-08-17T10:36:26;97259.72;;;26.31;54.01
71917;BME280;59793;46.506;6.674;2023-08-17T10:41:45;97246.22;;;26.31;51.69
71917;BME280;59793;46.506;6.674;2023-08-17T10:44:10;97237.59;;;26.67;50.94
71917;BME280;59793;46.506;6.674;2023-08-17T10:46:37;97228.94;;;27.12;49.35
71917;BME280;59793;46.506;6.674;2023-08-17T10:49:03;97225.28;;;27.74;50.59
71917;BME280;59793;46.506;6.674;2023-08-17T10:51:29;97227.84;;;28.24;47.25
71917;BME280;59793;46.506;6.674;2023-08-17T10:53:55;97229.94;;;28.29;46.42
71917;BME280;59793;46.506;6.674;2023-08-17T10:56:24;97221.81;;;28.38;46.96
71917;BME280;59793;46.506;6.674;2023-08-17T10:58:51;97216.84;;;28.79;45.49
71917;BME280;59793;46.506;6.674;2023-08-17T11:01:30;97210.50;;;28.82;45.62
71917;BME280;59793;46.506;6.674;2023-08-17T11:04:12;97205.63;;;28.95;43.49
71917;BME280;59793;46.506;6.674;2023-08-17T11:06:41;97206.63;;;29.40;43.32
71917;BME280;59793;46.506;6.674;2023-08-17T11:09:08;97198.63;;;29.61;42.14
71917;BME280;59793;46.506;6.674;2023-08-17T11:11:33;97192.03;;;29.76;42.16
71917;BME280;59793;46.506;6.674;2023-08-17T11:13:59;97201.84;;;29.50;42.73
71917;BME280;59793;46.506;6.674;2023-08-17T11:16:24;97197.63;;;28.58;44.30
71917;BME280;59793;46.506;6.674;2023-08-17T11:18:50;97189.13;;;28.32;45.57
71917;BME280;59793;46.506;6.674;2023-08-17T11:21:16;97182.03;;;28.44;44.82
71917;BME280;59793;46.506;6.674;2023-08-17T11:23:42;97188.38;;;28.41;45.12
71917;BME280;59793;46.506;6.674;2023-08-17T11:26:07;97188.25;;;28.69;45.32
71917;BME280;59793;46.506;6.674;2023-08-17T11:28:33;97185.59;;;28.93;44.61
71917;BME280;59793;46.506;6.674;2023-08-17T11:31:09;97177.91;;;29.48;45.94
71917;BME280;59793;46.506;6.674;2023-08-17T11:33:35;97179.88;;;29.48;43.98
71917;BME280;59793;46.506;6.674;2023-08-17T11:36:01;97186.78;;;29.73;42.37
71917;BME280;59793;46.506;6.674;2023-08-17T11:38:45;97176.09;;;29.45;42.44
71917;BME280;59793;46.506;6.674;2023-08-17T11:41:11;97177.63;;;28.89;46.25
71917;BME280;59793;46.506;6.674;2023-08-17T11:43:37;97177.91;;;29.24;42.86
71917;BME280;59793;46.506;6.674;2023-08-17T11:46:02;97184.72;;;29.20;43.34
71917;BME280;59793;46.506;6.674;2023-08-17T11:48:28;97177.25;;;29.53;42.93
71917;BME280;59793;46.506;6.674;2023-08-17T11:50:54;97176.47;;;29.77;41.13
71917;BME280;59793;46.506;6.674;2023-08-17T11:53:20;97168.41;;;29.68;40.34
71917;BME280;59793;46.506;6.674;2023-08-17T11:55:45;97166.53;;;29.74;40.83
71917;BME280;59793;46.506;6.674;2023-08-17T11:58:10;97169.19;;;29.98;39.29
71917;BME280;59793;46.506;6.674;2023-08-17T12:00:36;97159.81;;;29.84;40.86
71917;BME280;59793;46.506;6.674;2023-08-17T12:03:04;97158.59;;;29.85;40.13
71917;BME280;59793;46.506;6.674;2023-08-17T12:05:30;97162.72;;;30.10;40.44
71917;BME280;59793;46.506;6.674;2023-08-17T12:07:55;97154.00;;;30.06;39.98
71917;BME280;59793;46.506;6.674;2023-08-17T12:10:20;97156.28;;;30.37;40.00
71917;BME280;59793;46.506;6.674;2023-08-17T12:12:47;97147.75;;;30.30;39.34
71917;BME280;59793;46.506;6.674;2023-08-17T12:15:13;97149.06;;;30.05;40.11
71917;BME280;59793;46.506;6.674;2023-08-17T12:17:45;97139.88;;;29.87;40.90
71917;BME280;59793;46.506;6.674;2023-08-17T12:20:15;97145.00;;;29.85;40.41
71917;BME280;59793;46.506;6.674;2023-08-17T12:22:40;97141.03;;;30.25;39.45
71917;BME280;59793;46.506;6.674;2023-08-17T12:25:06;97144.84;;;30.33;38.67
71917;BME280;59793;46.506;6.674;2023-08-17T12:27:31;97141.28;;;30.27;40.49
71917;BME280;59793;46.506;6.674;2023-08-17T12:29:56;97142.41;;;30.20;38.48
71917;BME280;59793;46.506;6.674;2023-08-17T12:32:21;97141.75;;;30.11;39.10
71917;BME280;59793;46.506;6.674;2023-08-17T12:34:47;97138.28;;;29.95;40.75
71917;BME280;59793;46.506;6.674;2023-08-17T12:37:17;97139.31;;;29.83;40.11
71917;BME280;59793;46.506;6.674;2023-08-17T12:39:43;97132.91;;;29.33;41.34
71917;BME280;59793;46.506;6.674;2023-08-17T12:42:08;97139.88;;;29.48;41.77
71917;BME280;59793;46.506;6.674;2023-08-17T12:44:34;97141.19;;;29.53;42.54
71917;BME280;59793;46.506;6.674;2023-08-17T12:46:59;97144.63;;;29.77;41.54
71917;BME280;59793;46.506;6.674;2023-08-17T12:49:25;97141.66;;;29.75;40.09
71917;BME280;59793;46.506;6.674;2023-08-17T12:51:51;97141.38;;;29.11;40.71
71917;BME280;59793;46.506;6.674;2023-08-17T12:54:17;97133.50;;;29.37;44.63
71917;BME280;59793;46.506;6.674;2023-08-17T12:56:42;97131.03;;;29.24;44.03
71917;BME280;59793;46.506;6.674;2023-08-17T12:59:07;97128.47;;;29.44;43.62
71917;BME280;59793;46.506;6.674;2023-08-17T13:01:33;97132.00;;;29.89;41.23